Time;durP1;ratioP1;P1;durP2;ratioP2;P2;SDS_P1;SDS_P2;PMS_P1;PMS_P2;Temp;Humidity;BMP_temperature;BMP_pressure;BME280_temperature;BME280_humidity;BME280_pressure;Samples;Min_cycle;Max_cycle;Signal;HPM_P1;HPM_P2
2023/08/08 00:00:05;;;;;;;2.47;1.85;;;;;;;24.72;53.25;99368.22;5054888;28;20442;-62
2023/08/08 00:02:30;;;;;;;2.30;2.08;;;;;;;24.67;53.00;99360.91;5054514;28;20342;-62
2023/08/08 00:04:56;;;;;;;2.30;2.00;;;;;;;24.69;52.95;99368.75;5055406;28;20041;-62
2023/08/08 00:07:21;;;;;;;2.78;1.90;;;;;;;24.63;52.90;99357.09;5054230;28;20037;-62
2023/08/08 00:09:47;;;;;;;2.67;1.50;;;;;;;24.58;53.16;99361.66;5054250;28;20230;-62
2023/08/08 00:12:12;;;;;;;3.47;2.08;;;;;;;24.56;53.13;99369.22;5053653;28;20376;-62
2023/08/08 00:14:38;;;;;;;3.15;1.90;;;;;;;24.60;53.13;99371.16;5054314;28;20037;-61
2023/08/08 00:17:03;;;;;;;2.25;1.67;;;;;;;24.59;53.30;99374.94;5053133;28;20037;-61
2023/08/08 00:19:29;;;;;;;4.65;2.47;;;;;;;24.59;53.56;99377.63;5054252;28;20060;-62
2023/08/08 00:21:54;;;;;;;1.70;1.60;;;;;;;24.57;53.56;99381.69;5052543;28;20130;-62
2023/08/08 00:24:20;;;;;;;2.15;1.75;;;;;;;24.47;54.22;99377.84;5052590;28;20101;-61
2023/08/08 00:26:45;;;;;;;2.40;1.60;;;;;;;24.47;54.40;99391.38;5053455;28;20040;-62
2023/08/08 00:29:10;;;;;;;2.67;1.75;;;;;;;24.45;55.27;99390.00;5053642;28;20058;-61
2023/08/08 00:31:36;;;;;;;1.98;1.77;;;;;;;24.43;56.13;99392.97;5053073;28;20129;-61
2023/08/08 00:34:01;;;;;;;2.45;1.73;;;;;;;24.37;56.60;99399.44;5053016;28;20043;-61
2023/08/08 00:36:27;;;;;;;2.92;1.40;;;;;;;24.42;56.75;99399.47;5053419;28;20037;-62
2023/08/08 00:38:52;;;;;;;1.63;1.50;;;;;;;24.39;56.63;99402.69;5052630;28;20025;-62
2023/08/08 00:41:17;;;;;;;3.50;1.73;;;;;;;24.31;57.14;99403.19;5053401;28;20331;-62
2023/08/08 00:43:43;;;;;;;1.90;1.30;;;;;;;24.22;57.79;99391.19;5052760;28;20336;-62
2023/08/08 00:46:09;;;;;;;1.45;1.35;;;;;;;24.12;58.65;99397.31;5053819;28;20550;-62
2023/08/08 00:48:34;;;;;;;1.58;1.30;;;;;;;24.19;58.82;99400.63;5052629;28;20061;-62
2023/08/08 00:51:00;;;;;;;1.90;1.33;;;;;;;24.15;59.22;99394.09;5053581;28;20052;-61
2023/08/08 00:53:28;;;;;;;1.40;1.30;;;;;;;24.09;59.82;99397.84;5053386;28;20060;-62
2023/08/08 00:55:54;;;;;;;1.30;1.20;;;;;;;23.93;60.78;99385.28;5053574;28;20845;-61
2023/08/08 00:58:19;;;;;;;1.17;1.08;;;;;;;24.03;60.90;99396.16;5054279;28;20036;-62
2023/08/08 01:00:45;;;;;;;0.95;0.90;;;;;;;24.09;60.93;99399.72;5053117;28;20342;-61
2023/08/08 01:03:10;;;;;;;1.38;1.00;;;;;;;24.12;60.76;99408.16;5054551;28;20039;-62
2023/08/08 01:05:43;;;;;;;1.50;1.30;;;;;;;24.17;60.54;99408.19;5053842;28;20037;-62
2023/08/08 01:08:10;;;;;;;2.30;1.50;;;;;;;24.18;60.48;99407.09;5053693;28;20044;-62
2023/08/08 01:10:40;;;;;;;1.95;1.23;;;;;;;24.17;60.44;99408.19;5053717;28;20060;-62
2023/08/08 01:13:15;;;;;;;1.40;1.17;;;;;;;24.19;60.44;99405.22;5053274;28;20112;-62
2023/08/08 01:15:41;;;;;;;1.40;1.10;;;;;;;24.25;60.38;99411.47;5053176;28;20338;-62
2023/08/08 01:18:09;;;;;;;1.33;1.00;;;;;;;24.31;60.21;99415.88;5053207;28;20057;-62
2023/08/08 01:20:36;;;;;;;1.40;1.20;;;;;;;24.33;60.03;99417.25;5053736;28;20616;-62
2023/08/08 01:23:42;;;;;;;2.65;1.50;;;;;;;24.26;59.98;99423.94;5052917;28;20064;-62
2023/08/08 01:26:08;;;;;;;1.85;1.10;;;;;;;24.24;59.95;99426.09;5052246;28;20041;-62
2023/08/08 01:28:34;;;;;;;2.03;1.25;;;;;;;24.11;60.21;99420.03;5052154;28;20396;-62
2023/08/08 01:31:00;;;;;;;1.42;0.80;;;;;;;23.98;60.84;99430.47;5052249;28;20047;-61
2023/08/08 01:33:25;;;;;;;1.60;1.00;;;;;;;23.97;60.57;99413.44;5052816;28;20045;-61
2023/08/08 01:35:56;;;;;;;0.90;0.70;;;;;;;24.08;60.37;99434.09;5052075;28;20101;-61
2023/08/08 01:38:31;;;;;;;1.40;0.98;;;;;;;24.04;60.76;99432.16;5052993;28;20056;-62
2023/08/08 01:40:58;;;;;;;1.20;1.02;;;;;;;24.09;60.65;99432.19;5052813;28;20040;-62
2023/08/08 01:43:24;;;;;;;1.77;0.98;;;;;;;24.01;60.27;99428.06;5053004;28;20356;-62
2023/08/08 01:45:50;;;;;;;1.55;0.70;;;;;;;24.04;60.14;99434.84;5056693;28;20382;-62
2023/08/08 01:48:16;;;;;;;1.83;0.90;;;;;;;23.98;59.59;99439.41;5055738;28;20045;-61
2023/08/08 01:50:41;;;;;;;2.40;0.93;;;;;;;23.96;59.53;99446.13;5056452;28;20242;-62
2023/08/08 01:53:07;;;;;;;0.70;0.60;;;;;;;23.93;59.54;99438.50;5055697;28;20039;-61
2023/08/08 01:55:32;;;;;;;2.35;0.70;;;;;;;23.91;59.49;99446.06;5056419;28;20064;-62
2023/08/08 01:57:58;;;;;;;0.75;0.45;;;;;;;23.81;59.84;99444.91;5055708;28;20284;-62
2023/08/08 02:00:23;;;;;;;1.50;1.00;;;;;;;23.79;59.89;99452.44;5055725;28;20048;-62
2023/08/08 02:02:48;;;;;;;1.92;0.68;;;;;;;23.73;60.49;99460.75;5056211;28;20334;-62
2023/08/08 02:05:14;;;;;;;0.82;0.77;;;;;;;23.57;60.88;99457.06;5056169;28;20091;-62
2023/08/08 02:07:39;;;;;;;1.00;0.50;;;;;;;23.55;60.98;99462.75;5056284;28;20025;-62
2023/08/08 02:10:05;;;;;;;2.67;0.80;;;;;;;23.38;61.47;99455.75;5056939;28;20032;-61
2023/08/08 02:12:31;;;;;;;0.80;0.60;;;;;;;23.40;61.47;99461.72;5057328;28;20042;-61
2023/08/08 02:14:57;;;;;;;0.50;0.50;;;;;;;23.34;61.91;99463.53;5056783;28;20037;-63
2023/08/08 02:17:23;;;;;;;1.40;0.43;;;;;;;23.29;62.14;99462.66;5056751;28;20037;-63
2023/08/08 02:19:48;;;;;;;1.08;0.60;;;;;;;23.19;62.49;99466.06;5055980;28;20212;-63
2023/08/08 02:22:14;;;;;;;1.30;0.63;;;;;;;23.18;62.41;99465.25;5057074;28;20272;-63
2023/08/08 02:24:39;;;;;;;1.33;0.57;;;;;;;23.16;62.55;99461.97;5055743;28;20029;-63
2023/08/08 02:27:05;;;;;;;2.25;0.85;;;;;;;23.10;62.92;99465.69;5057013;28;20056;-63
2023/08/08 02:29:30;;;;;;;2.03;0.88;;;;;;;23.07;62.83;99468.06;5038824;28;20108;-62
2023/08/08 02:31:56;;;;;;;2.55;0.90;;;;;;;23.10;62.83;99473.78;5056390;28;20048;-63
2023/08/08 02:34:21;;;;;;;2.08;0.60;;;;;;;23.03;62.88;99486.66;5057480;28;20040;-63
2023/08/08 02:36:47;;;;;;;0.82;0.77;;;;;;;23.00;63.19;99479.03;5056673;28;20241;-63
2023/08/08 02:39:12;;;;;;;0.93;0.80;;;;;;;22.99;63.29;99476.59;5056955;28;20037;-64
2023/08/08 02:41:38;;;;;;;2.05;0.68;;;;;;;22.96;63.71;99487.88;5055542;28;20262;-63
2023/08/08 02:44:03;;;;;;;1.00;0.70;;;;;;;22.96;64.14;99493.28;5056712;28;20097;-63
2023/08/08 02:46:29;;;;;;;3.13;0.73;;;;;;;22.89;64.05;99485.38;5055196;28;20045;-62
2023/08/08 02:48:54;;;;;;;0.65;0.65;;;;;;;22.92;64.12;99495.66;5056565;28;20049;-65
2023/08/08 02:51:20;;;;;;;1.02;0.80;;;;;;;22.95;64.27;99500.56;5055507;28;20250;-61
2023/08/08 02:53:45;;;;;;;2.20;1.27;;;;;;;22.92;64.62;99496.50;5056881;28;20310;-62
2023/08/08 02:56:11;;;;;;;0.82;0.82;;;;;;;22.83;64.92;99505.22;5055485;28;20266;-63
2023/08/08 02:58:36;;;;;;;0.68;0.68;;;;;;;22.77;65.54;99515.09;5056186;28;20037;-62
2023/08/08 03:01:01;;;;;;;1.05;0.60;;;;;;;22.79;65.54;99518.38;5055903;28;20384;-62
2023/08/08 03:03:27;;;;;;;2.80;0.90;;;;;;;22.77;65.72;99527.78;5055671;28;20326;-63
2023/08/08 03:05:52;;;;;;;1.85;0.90;;;;;;;22.72;65.82;99525.81;5056301;28;20329;-63
2023/08/08 03:08:18;;;;;;;1.55;0.90;;;;;;;22.72;66.04;99517.72;5055482;28;20037;-63
2023/08/08 03:10:43;;;;;;;1.67;0.88;;;;;;;22.57;66.95;99523.69;5056390;28;20048;-63
2023/08/08 03:13:09;;;;;;;0.90;0.80;;;;;;;22.59;66.87;99521.56;5055876;28;20109;-63
2023/08/08 03:15:35;;;;;;;0.80;0.80;;;;;;;22.68;66.74;99535.47;5055147;28;20037;-64
2023/08/08 03:18:00;;;;;;;1.70;0.90;;;;;;;22.65;67.02;99538.66;5054308;28;20047;-64
2023/08/08 03:20:26;;;;;;;1.13;0.80;;;;;;;22.64;67.13;99542.44;5055699;28;20065;-63
2023/08/08 03:22:51;;;;;;;1.73;0.90;;;;;;;22.66;67.30;99547.56;5055603;28;20044;-63
2023/08/08 03:25:17;;;;;;;2.83;1.15;;;;;;;22.70;67.02;99559.53;5055794;28;20212;-63
2023/08/08 03:27:43;;;;;;;1.80;0.80;;;;;;;22.76;67.01;99562.06;5054326;28;20060;-63
2023/08/08 03:30:08;;;;;;;1.40;0.90;;;;;;;;;;5055777;28;20394;-62
2023/08/08 03:32:34;;;;;;;1.60;1.00;;;;;;;22.67;67.78;99577.03;5054774;28;20044;-63
2023/08/08 03:34:59;;;;;;;1.83;1.38;;;;;;;22.65;68.14;99581.03;5054309;28;20361;-63
2023/08/08 03:37:25;;;;;;;2.17;0.90;;;;;;;22.65;68.58;99575.63;5055501;28;20032;-63
2023/08/08 03:39:50;;;;;;;1.40;0.95;;;;;;;22.61;69.09;99589.63;5054501;28;20102;-63
2023/08/08 03:42:15;;;;;;;1.70;1.00;;;;;;;22.48;70.12;99589.94;5055151;28;20025;-62
2023/08/08 03:44:41;;;;;;;2.33;0.98;;;;;;;22.45;70.64;99595.00;5054574;28;20050;-63
2023/08/08 03:47:07;;;;;;;1.35;0.90;;;;;;;22.35;70.46;99605.59;5055656;28;20044;-63
2023/08/08 03:49:32;;;;;;;0.93;0.80;;;;;;;22.28;71.66;99616.53;5053905;28;20205;-63
2023/08/08 03:51:58;;;;;;;1.15;0.70;;;;;;;22.23;77.81;99614.56;5054742;28;20053;-63
2023/08/08 03:54:23;;;;;;;3.70;1.00;;;;;;;22.13;80.09;99614.38;5053510;28;20029;-63
2023/08/08 03:56:49;;;;;;;2.50;1.00;;;;;;;22.02;82.64;99609.00;5053681;28;20310;-64
2023/08/08 03:59:14;;;;;;;1.48;0.82;;;;;;;21.81;87.08;99622.03;5053740;28;20041;-63
2023/08/08 04:01:40;;;;;;;4.10;1.52;;;;;;;21.59;93.33;99632.63;5053718;28;20056;-62
2023/08/08 04:04:05;;;;;;;2.60;1.40;;;;;;;21.53;96.49;99638.94;5055034;28;20035;-63
2023/08/08 04:06:31;;;;;;;2.22;1.10;;;;;;;21.44;97.11;99647.63;5052986;28;20051;-62
2023/08/08 04:08:56;;;;;;;2.55;1.42;;;;;;;21.37;99.04;99663.09;5054932;28;20037;-62
2023/08/08 04:11:22;;;;;;;2.35;1.08;;;;;;;21.33;100.00;99670.81;5054133;28;20041;-62
2023/08/08 04:13:47;;;;;;;3.10;1.20;;;;;;;21.17;100.00;99680.38;5054643;28;20074;-63
2023/08/08 04:16:13;;;;;;;1.83;1.35;;;;;;;21.35;100.00;99677.59;5053483;28;20044;-62
2023/08/08 04:18:38;;;;;;;2.80;1.30;;;;;;;21.31;100.00;99675.63;5054533;28;20060;-63
2023/08/08 04:21:04;;;;;;;1.35;1.25;;;;;;;21.35;100.00;99682.16;5053174;28;20024;-63
2023/08/08 04:23:29;;;;;;;1.23;1.10;;;;;;;21.16;100.00;99694.06;5054548;28;20039;-62
2023/08/08 04:25:55;;;;;;;1.08;0.88;;;;;;;21.27;100.00;99694.09;5054204;28;20029;-63
2023/08/08 04:28:20;;;;;;;1.10;0.95;;;;;;;21.27;100.00;99712.97;5055394;28;20041;-63
2023/08/08 04:30:46;;;;;;;2.17;1.35;;;;;;;21.27;100.00;99712.97;5053612;28;20033;-62
2023/08/08 04:33:11;;;;;;;5.32;2.38;;;;;;;21.22;100.00;99714.69;5055454;28;20029;-63
2023/08/08 04:35:37;;;;;;;5.82;2.03;;;;;;;21.16;100.00;99718.28;5053731;28;20063;-63
2023/08/08 04:38:03;;;;;;;7.15;1.83;;;;;;;21.01;100.00;99727.63;5054771;28;20032;-63
2023/08/08 04:40:28;;;;;;;3.33;1.45;;;;;;;20.78;100.00;99707.88;5053867;28;20045;-63
2023/08/08 04:42:54;;;;;;;7.00;2.00;;;;;;;20.73;100.00;99717.47;5054556;28;20312;-63
2023/08/08 04:45:20;;;;;;;2.05;1.55;;;;;;;20.55;100.00;99719.38;5053713;28;20128;-63
2023/08/08 04:47:46;;;;;;;2.28;1.70;;;;;;;20.59;100.00;99723.25;5053171;28;20024;-63
2023/08/08 04:50:12;;;;;;;3.17;1.63;;;;;;;20.51;100.00;99723.56;5053607;28;20106;-63
2023/08/08 04:52:37;;;;;;;2.03;1.83;;;;;;;20.61;100.00;99730.03;5052871;28;20044;-62
2023/08/08 04:55:03;;;;;;;4.00;1.60;;;;;;;20.66;100.00;99738.25;5054304;28;20059;-63
2023/08/08 04:57:29;;;;;;;2.45;1.67;;;;;;;20.56;100.00;99740.66;5053248;28;20035;-62
2023/08/08 04:59:54;;;;;;;3.30;1.73;;;;;;;20.38;100.00;99749.53;5054043;28;20028;-63
2023/08/08 05:02:20;;;;;;;2.38;2.00;;;;;;;20.46;100.00;99764.59;5052652;28;20040;-62
2023/08/08 05:04:45;;;;;;;2.92;1.75;;;;;;;20.45;100.00;99759.44;5053024;28;20334;-62
2023/08/08 05:07:11;;;;;;;3.85;1.90;;;;;;;20.43;100.00;99789.25;5051954;28;20110;-62
2023/08/08 05:09:36;;;;;;;2.90;2.00;;;;;;;20.29;100.00;99790.41;5053048;28;20060;-62
2023/08/08 05:12:02;;;;;;;3.92;2.13;;;;;;;20.28;100.00;99794.97;5052153;28;20051;-62
2023/08/08 05:14:27;;;;;;;3.50;2.00;;;;;;;20.15;100.00;99796.97;5052879;28;20040;-62
2023/08/08 05:16:53;;;;;;;2.28;2.08;;;;;;;20.27;100.00;99797.88;5051706;28;20044;-63
2023/08/08 05:19:18;;;;;;;1.50;1.40;;;;;;;20.15;100.00;99810.41;5052681;28;20040;-62
2023/08/08 05:21:44;;;;;;;4.22;2.00;;;;;;;20.12;100.00;99821.63;5053750;28;20281;-63
2023/08/08 05:24:09;;;;;;;4.10;1.80;;;;;;;20.21;100.00;99821.09;5053416;28;20239;-62
2023/08/08 05:26:35;;;;;;;2.38;1.70;;;;;;;20.20;100.00;99827.53;5053584;28;20029;-62
2023/08/08 05:29:00;;;;;;;2.85;1.60;;;;;;;20.29;100.00;99826.19;5052651;28;20035;-63
2023/08/08 05:31:26;;;;;;;4.03;1.70;;;;;;;20.31;100.00;99834.03;5053232;28;20052;-62
2023/08/08 05:33:51;;;;;;;4.55;1.92;;;;;;;20.34;100.00;99837.09;5052628;28;20044;-63
2023/08/08 05:36:17;;;;;;;2.40;1.60;;;;;;;20.42;100.00;99837.88;5053232;28;20047;-63
2023/08/08 05:38:42;;;;;;;3.63;2.10;;;;;;;20.42;100.00;99817.19;5053284;28;20054;-63
2023/08/08 05:41:08;;;;;;;2.17;1.77;;;;;;;20.56;100.00;99837.50;5054283;28;20238;-63
2023/08/08 05:43:34;;;;;;;2.45;2.03;;;;;;;20.67;100.00;99833.25;5052895;28;20045;-63
2023/08/08 05:45:59;;;;;;;4.22;2.03;;;;;;;20.78;100.00;99835.16;5053732;28;20061;-63
2023/08/08 05:48:24;;;;;;;3.17;2.05;;;;;;;20.75;100.00;99841.00;5052637;28;20037;-63
2023/08/08 05:50:50;;;;;;;3.92;2.15;;;;;;;20.67;100.00;99842.13;5053049;28;20310;-62
2023/08/08 05:53:15;;;;;;;3.60;3.20;;;;;;;20.54;100.00;99857.59;5053295;28;20037;-63
2023/08/08 05:55:44;;;;;;;5.13;3.10;;;;;;;20.57;100.00;99860.66;5052705;28;20051;-62
2023/08/08 05:58:09;;;;;;;3.90;3.53;;;;;;;20.40;100.00;99867.69;5053580;28;20099;-63
2023/08/08 06:00:35;;;;;;;5.03;4.00;;;;;;;20.37;100.00;99868.94;5052902;28;20314;-63
2023/08/08 06:03:01;;;;;;;4.72;4.22;;;;;;;20.37;100.00;99862.72;5053380;28;20036;-63
2023/08/08 06:05:28;;;;;;;4.65;4.25;;;;;;;20.27;100.00;99862.41;5052176;28;20029;-62
2023/08/08 06:07:55;;;;;;;5.90;5.05;;;;;;;20.26;100.00;99875.03;5053159;28;20068;-64
2023/08/08 06:10:21;;;;;;;5.78;3.75;;;;;;;20.20;100.00;99870.53;5053404;28;20037;-63
2023/08/08 06:12:46;;;;;;;4.10;3.35;;;;;;;20.16;100.00;99876.59;5053090;28;20037;-63
2023/08/08 06:15:12;;;;;;;3.55;2.70;;;;;;;20.11;100.00;99879.13;5052052;28;20063;-63
2023/08/08 06:17:38;;;;;;;2.90;2.70;;;;;;;19.97;100.00;99876.53;5052092;28;20067;-63
2023/08/08 06:20:05;;;;;;;3.15;2.30;;;;;;;20.05;100.00;99870.88;5051921;28;20025;-63
2023/08/08 06:22:32;;;;;;;2.95;2.70;;;;;;;20.05;100.00;99878.13;5051125;28;20091;-62
2023/08/08 06:24:57;;;;;;;2.95;2.13;;;;;;;20.11;100.00;99871.88;5052490;28;20029;-61
2023/08/08 06:27:23;;;;;;;2.05;1.85;;;;;;;20.31;100.00;99875.19;5051694;28;20040;-62
2023/08/08 06:29:48;;;;;;;2.72;2.15;;;;;;;20.31;100.00;99875.19;5054611;28;20230;-62
2023/08/08 06:32:14;;;;;;;3.95;2.40;;;;;;;20.43;100.00;99878.00;5055309;28;20043;-63
2023/08/08 06:34:39;;;;;;;2.95;2.25;;;;;;;20.43;100.00;99883.38;5057264;28;20385;-63
2023/08/08 06:37:05;;;;;;;2.38;2.17;;;;;;;20.39;100.00;99890.25;5058460;28;20044;-63
2023/08/08 06:39:31;;;;;;;2.47;2.28;;;;;;;20.35;100.00;99887.16;5057606;28;20032;-63
2023/08/08 06:41:57;;;;;;;2.65;2.25;;;;;;;20.32;100.00;99892.97;5057828;28;20871;-63
2023/08/08 06:44:23;;;;;;;2.55;2.35;;;;;;;20.32;100.00;99878.69;5058380;28;20103;-63
2023/08/08 06:46:48;;;;;;;3.13;2.50;;;;;;;20.36;100.00;99878.03;5057568;28;20537;-63
2023/08/08 06:49:14;;;;;;;3.33;2.80;;;;;;;20.43;100.00;99872.63;5056842;28;20028;-63
2023/08/08 06:51:39;;;;;;;2.95;2.28;;;;;;;20.56;100.00;99874.34;5057400;28;20048;-62
2023/08/08 06:54:05;;;;;;;3.38;3.10;;;;;;;20.66;100.00;99870.09;5057745;28;20184;-63
2023/08/08 06:56:30;;;;;;;3.20;2.90;;;;;;;20.82;100.00;99876.75;5057747;28;20045;-63
2023/08/08 06:58:56;;;;;;;3.92;3.10;;;;;;;20.89;100.00;99877.50;5058798;28;20063;-63
2023/08/08 07:01:21;;;;;;;7.00;2.80;;;;;;;21.00;100.00;99881.31;5058922;28;20049;-63
2023/08/08 07:03:47;;;;;;;3.08;2.72;;;;;;;21.19;100.00;99882.91;5057872;28;20612;-62
2023/08/08 07:06:12;;;;;;;4.63;4.10;;;;;;;21.38;100.00;99883.72;5057797;28;20310;-62
2023/08/08 07:08:39;;;;;;;3.38;3.08;;;;;;;21.43;100.00;99891.13;5057003;28;20044;-63
2023/08/08 07:11:06;;;;;;;4.85;3.20;;;;;;;21.59;100.00;99883.19;5056680;28;20094;-63
2023/08/08 07:13:32;;;;;;;3.08;2.78;;;;;;;21.77;100.00;99879.59;5057227;28;20041;-63
2023/08/08 07:15:57;;;;;;;3.10;2.80;;;;;;;21.82;99.99;99882.44;5056647;28;20273;-63
2023/08/08 07:18:23;;;;;;;3.35;3.05;;;;;;;21.88;98.78;99881.53;5056810;28;20037;-63
2023/08/08 07:20:49;;;;;;;3.50;3.15;;;;;;;22.09;99.36;99882.88;5056929;28;20200;-63
2023/08/08 07:23:16;;;;;;;4.75;3.13;;;;;;;22.27;96.25;99881.94;5057068;28;20053;-62
2023/08/08 07:25:42;;;;;;;3.63;2.90;;;;;;;22.35;96.12;99886.16;5058091;28;20047;-62
2023/08/08 07:28:08;;;;;;;2.58;2.38;;;;;;;22.31;94.52;99877.72;5058937;28;20064;-62
2023/08/08 07:30:34;;;;;;;2.72;2.53;;;;;;;22.31;94.43;99877.72;5058852;28;20044;-63
2023/08/08 07:33:00;;;;;;;3.45;3.15;;;;;;;22.33;95.36;99883.69;5056400;28;20036;-63
2023/08/08 07:35:25;;;;;;;3.28;2.53;;;;;;;22.34;93.74;99887.22;5056827;28;20033;-63
2023/08/08 07:37:51;;;;;;;3.22;2.83;;;;;;;22.20;93.91;99895.53;5056496;28;20495;-62
2023/08/08 07:40:17;;;;;;;3.92;3.63;;;;;;;22.26;94.18;99894.59;5056594;28;20385;-63
2023/08/08 07:42:44;;;;;;;3.65;2.67;;;;;;;22.55;93.62;99894.69;5056103;28;20095;-63
2023/08/08 07:45:10;;;;;;;3.83;3.38;;;;;;;23.11;93.89;99901.31;5057129;28;20295;-62
2023/08/08 07:47:35;;;;;;;4.25;3.35;;;;;;;23.38;90.40;99899.69;5056212;28;20041;-62
2023/08/08 07:50:01;;;;;;;10.65;6.13;;;;;;;23.40;88.79;99897.56;5056691;28;20036;-63
2023/08/08 07:52:27;;;;;;;6.35;4.53;;;;;;;23.35;86.78;99894.78;5055398;28;20091;-62
2023/08/08 07:54:53;;;;;;;8.45;5.30;;;;;;;23.33;86.70;99901.47;5055816;28;20060;-63
2023/08/08 07:57:18;;;;;;;4.38;3.35;;;;;;;22.92;88.70;99908.78;5056299;28;20110;-63
2023/08/08 07:59:44;;;;;;;6.05;4.40;;;;;;;22.99;87.82;99912.16;5056256;28;20043;-62
2023/08/08 08:02:09;;;;;;;5.55;3.88;;;;;;;22.87;85.40;99916.75;5055913;28;20056;-63
2023/08/08 08:04:35;;;;;;;5.68;4.15;;;;;;;22.96;87.99;99912.66;5057046;28;20039;-62
2023/08/08 08:07:00;;;;;;;4.97;3.70;;;;;;;22.92;87.42;99920.41;5056041;28;20043;-62
2023/08/08 08:09:26;;;;;;;4.35;3.30;;;;;;;22.86;86.11;99917.81;5058469;28;20037;-63
2023/08/08 08:11:51;;;;;;;3.08;2.85;;;;;;;22.78;85.90;99924.34;5056629;28;20071;-63
2023/08/08 08:14:17;;;;;;;5.07;3.38;;;;;;;22.77;86.88;99919.19;5055896;28;20048;-62
2023/08/08 08:16:45;;;;;;;7.75;3.30;;;;;;;22.83;87.43;99916.41;5055574;28;20056;-63
2023/08/08 08:19:10;;;;;;;3.20;2.95;;;;;;;22.70;85.55;99915.81;5055951;28;20037;-63
2023/08/08 08:21:35;;;;;;;3.80;3.47;;;;;;;22.93;86.85;99918.53;5056242;28;20052;-63
2023/08/08 08:24:02;;;;;;;3.00;2.70;;;;;;;23.05;87.40;99918.50;5057737;28;20048;-63
2023/08/08 08:26:27;;;;;;;4.40;3.38;;;;;;;22.85;85.49;99921.56;5056936;28;20029;-63
2023/08/08 08:28:53;;;;;;;4.68;3.20;;;;;;;22.99;85.44;99925.66;5058987;28;20271;-63
2023/08/08 08:31:19;;;;;;;3.55;2.38;;;;;;;22.81;83.44;99920.38;5057226;28;20037;-63
2023/08/08 08:33:44;;;;;;;2.58;2.38;;;;;;;23.00;82.78;99919.22;5055880;28;20329;-63
2023/08/08 08:36:10;;;;;;;2.90;2.28;;;;;;;22.99;81.93;99912.16;5055210;28;20036;-63
2023/08/08 08:38:35;;;;;;;2.42;2.22;;;;;;;23.10;82.92;99914.00;5055524;28;20075;-63
2023/08/08 08:41:03;;;;;;;2.13;1.98;;;;;;;23.06;79.43;99909.31;5055679;28;20401;-63
2023/08/08 08:43:30;;;;;;;2.20;2.00;;;;;;;23.04;78.49;99914.16;5056206;28;20041;-62
2023/08/08 08:45:58;;;;;;;2.42;2.22;;;;;;;23.02;78.97;99900.06;5051134;28;20047;-63
2023/08/08 08:48:24;;;;;;;2.15;1.92;;;;;;;23.15;79.33;99916.00;5054875;28;20044;-63
2023/08/08 08:50:50;;;;;;;8.40;2.50;;;;;;;23.50;78.63;99907.75;5054878;28;20053;-63
2023/08/08 08:53:17;;;;;;;2.00;1.90;;;;;;;23.95;77.08;99891.56;5054247;28;20219;-63
2023/08/08 08:55:43;;;;;;;2.65;1.88;;;;;;;24.13;71.54;99896.72;5055587;28;20032;-63
2023/08/08 08:58:09;;;;;;;2.80;1.90;;;;;;;24.47;70.13;99902.09;5058600;28;20031;-63
2023/08/08 09:00:35;;;;;;;2.10;2.00;;;;;;;24.94;67.83;99902.47;5056423;28;20029;-63
2023/08/08 09:03:01;;;;;;;4.25;2.30;;;;;;;25.23;68.41;99903.13;5054558;28;20136;-63
2023/08/08 09:05:26;;;;;;;1.88;1.75;;;;;;;25.32;67.11;99900.78;5054676;28;20102;-63
2023/08/08 09:07:52;;;;;;;1.92;1.73;;;;;;;25.45;63.71;99894.97;5053824;28;20035;-63
2023/08/08 09:10:19;;;;;;;3.08;1.60;;;;;;;25.55;62.17;99896.94;5055651;28;20572;-63
2023/08/08 09:12:45;;;;;;;2.05;1.60;;;;;;;25.52;60.40;99894.75;5054613;28;20041;-62
2023/08/08 09:15:12;;;;;;;1.67;1.50;;;;;;;25.71;59.72;99902.28;5055082;28;20276;-62
2023/08/08 09:17:42;;;;;;;3.40;1.60;;;;;;;25.88;60.32;99890.50;5052314;28;20372;-64
2023/08/08 09:20:10;;;;;;;2.58;1.70;;;;;;;26.05;57.63;99885.78;5053124;28;20131;-63
2023/08/08 09:22:37;;;;;;;1.40;1.30;;;;;;;26.08;55.47;99871.69;5054454;28;20438;-63
2023/08/08 09:25:03;;;;;;;2.13;1.90;;;;;;;25.84;58.27;99875.81;5054944;28;20092;-63
2023/08/08 09:27:29;;;;;;;1.83;1.70;;;;;;;25.86;58.27;99877.19;5052781;28;20090;-63
2023/08/08 09:29:55;;;;;;;1.58;1.48;;;;;;;25.86;55.02;99870.94;5053237;28;20029;-63
2023/08/08 09:32:20;;;;;;;5.10;1.70;;;;;;;25.96;56.09;99868.31;5056985;28;20045;-63
2023/08/08 09:34:46;;;;;;;1.90;1.75;;;;;;;25.88;58.15;99866.09;5055574;28;20072;-62
2023/08/08 09:37:11;;;;;;;2.05;1.85;;;;;;;25.51;58.69;99860.59;5054741;28;20048;-63
2023/08/08 09:39:37;;;;;;;2.83;1.48;;;;;;;25.65;57.52;99857.22;5055228;28;20029;-63
2023/08/08 09:42:06;;;;;;;2.97;2.03;;;;;;;25.58;57.86;99864.72;5037748;28;20246;-64
2023/08/08 09:44:34;;;;;;;2.17;1.63;;;;;;;25.45;59.02;99854.28;5056241;28;20380;-63
2023/08/08 09:47:00;;;;;;;2.17;1.80;;;;;;;25.54;55.95;99851.94;5053789;28;20033;-63
2023/08/08 09:49:27;;;;;;;1.70;1.60;;;;;;;25.48;57.50;99848.34;5054745;28;20222;-64
2023/08/08 09:51:52;;;;;;;10.13;3.55;;;;;;;25.48;55.44;99853.78;5055515;28;20053;-63
2023/08/08 09:54:18;;;;;;;1.98;1.88;;;;;;;25.22;60.24;99863.56;5055597;28;20083;-64
2023/08/08 09:56:44;;;;;;;2.30;1.83;;;;;;;25.21;59.42;99850.25;5054656;28;20039;-62
2023/08/08 09:59:11;;;;;;;3.05;2.08;;;;;;;25.26;58.92;99847.59;5055269;28;20258;-62
2023/08/08 10:01:39;;;;;;;2.08;1.50;;;;;;;25.21;54.67;99851.06;5054656;28;20044;-63
2023/08/08 10:04:06;;;;;;;1.92;1.83;;;;;;;25.18;56.71;99848.88;5054221;28;20033;-62
2023/08/08 10:06:32;;;;;;;2.22;1.90;;;;;;;25.16;56.51;99847.50;5040443;28;20357;-63
2023/08/08 10:08:58;;;;;;;1.77;1.67;;;;;;;24.95;58.88;99841.78;5058934;28;20024;-63
2023/08/08 10:11:25;;;;;;;1.73;1.63;;;;;;;24.98;56.10;99845.94;5059782;28;20041;-63
2023/08/08 10:13:55;;;;;;;2.00;1.83;;;;;;;25.02;54.28;99844.38;5058625;28;20025;-63
2023/08/08 10:16:23;;;;;;;2.30;2.10;;;;;;;25.11;57.89;99859.09;5054177;28;20055;-63
2023/08/08 10:18:58;;;;;;;2.65;1.48;;;;;;;25.25;58.40;99846.78;5058718;28;20238;-63
2023/08/08 10:21:25;;;;;;;1.98;1.77;;;;;;;25.41;58.19;99843.16;5057637;28;20461;-63
2023/08/08 10:24:05;;;;;;;1.90;1.80;;;;;;;25.74;57.50;99835.88;5057779;28;20343;-64
2023/08/08 10:26:30;;;;;;;2.17;2.08;;;;;;;25.94;54.67;99843.34;5057791;28;20350;-64
2023/08/08 10:28:58;;;;;;;3.35;1.60;;;;;;;26.01;55.38;99839.34;5057313;28;20040;-63
2023/08/08 10:31:24;;;;;;;1.80;1.60;;;;;;;26.15;53.93;99837.00;5057201;28;20055;-63
2023/08/08 10:34:00;;;;;;;2.05;1.48;;;;;;;26.27;55.38;99834.91;5057744;28;20033;-62
2023/08/08 10:36:25;;;;;;;1.95;1.85;;;;;;;26.30;54.38;99836.28;5057538;28;20106;-63
2023/08/08 10:38:52;;;;;;;2.28;2.08;;;;;;;26.12;54.22;99829.38;5057419;28;20036;-63
2023/08/08 10:41:20;;;;;;;2.20;1.70;;;;;;;26.19;55.11;99826.44;5039309;28;20047;-63
2023/08/08 10:43:49;;;;;;;2.33;1.90;;;;;;;26.23;50.99;99822.13;5058827;28;20028;-63
2023/08/08 10:46:24;;;;;;;1.83;1.70;;;;;;;26.15;54.06;99828.03;5057826;28;20040;-63
2023/08/08 10:48:54;;;;;;;2.80;2.22;;;;;;;26.15;56.01;99826.16;5056493;28;20237;-63
2023/08/08 10:51:21;;;;;;;1.75;1.65;;;;;;;25.89;51.41;99822.41;5057834;28;20049;-62
2023/08/08 10:53:46;;;;;;;1.85;1.65;;;;;;;25.75;51.43;99829.38;5059221;28;20180;-63
2023/08/08 10:56:13;;;;;;;1.95;1.70;;;;;;;25.68;53.19;99826.06;5057932;28;20045;-63
2023/08/08 10:58:41;;;;;;;1.90;1.70;;;;;;;25.63;52.78;99831.41;5056228;28;20330;-62
2023/08/08 11:01:10;;;;;;;1.58;1.48;;;;;;;25.66;53.75;99815.47;5057723;28;20411;-63
2023/08/08 11:03:38;;;;;;;1.75;1.65;;;;;;;25.72;52.54;99821.75;5053078;28;20071;-64
2023/08/08 11:06:05;;;;;;;2.10;1.95;;;;;;;25.65;53.47;99827.38;5058043;28;20045;-63
2023/08/08 11:08:31;;;;;;;2.20;2.00;;;;;;;25.48;54.65;99815.81;5056592;28;20029;-63
2023/08/08 11:10:57;;;;;;;2.08;1.90;;;;;;;25.52;54.82;99824.25;5057593;28;20104;-63
2023/08/08 11:13:23;;;;;;;2.97;2.15;;;;;;;25.52;54.86;99818.84;5057808;28;20345;-63
2023/08/08 11:15:48;;;;;;;2.92;2.72;;;;;;;25.52;54.99;99811.53;5056752;28;20389;-63
2023/08/08 11:18:14;;;;;;;1.88;1.77;;;;;;;25.63;54.85;99815.13;5056719;28;20033;-63
2023/08/08 11:20:40;;;;;;;2.15;1.95;;;;;;;25.67;54.17;99806.25;5056973;28;20097;-63
2023/08/08 11:23:09;;;;;;;1.73;1.33;;;;;;;25.71;52.88;99801.13;5057166;28;20045;-63
2023/08/08 11:25:36;;;;;;;2.28;1.67;;;;;;;25.63;52.32;99801.56;5038817;28;20053;-63